KFSI/FSI METAR and TAF weather

Enter ICAO airport designator
Station Type Date Time Source
KFSI METAR 2019/04/24 15:56 UTC NOAA

KFSI 241556Z AUTO 02011KT 10SM FEW015 OVC065 16/13 A2992 RMK AO2 SLP129 T01550133


Station Type Date Time Source
KFSI Decoded METAR 2019/04/24 15:56 UTC NOAA

Fort Sill, OK, United States (KFSI) 34-36N 098-24W 360M
Apr 24, 2019 - 11:56 AM EDT / 2019.04.24 1556 UTC
Wind: from the NNE (020 degrees) at 13 MPH (11 KT):0
Visibility: 10 mile(s):0
Sky conditions: overcast
Temperature: 59.9 F (15.5 C)
Dew Point: 55.9 F (13.3 C)
Relative Humidity: 86%
Pressure (altimeter): 29.92 in. Hg (1013 hPa)
ob: KFSI 241556Z AUTO 02011KT 10SM FEW015 OVC065 16/13 A2992 RMK AO2 SLP129 T01550133
cycle: 16

Station Type Date Time Source
KFSI TAF 2019/04/24 13:12 UTC NOAA

TAF KFSI 241300Z 2413/2519 01006KT 9999 BKN012 BKN060 BKN250 QNH2990INS
BECMG 2414/2415 02006KT 9999 SCT015 BKN060 BKN250 QNH2992INS
TEMPO 2415/2417 BKN015
BECMG 2418/2419 03006KT 9999 SCT030 SCT060 SCT250 QNH2983INS
BECMG 2422/2423 VRB06KT 9999 FEW030 FEW250 QNH2982INS
BECMG 2503/2504 VRB06KT 9000 BR FEW015 SCT030 SCT250 QNH2984INS
BECMG 2512/2513 30007KT 9999 NSW SKC QNH2986INS TX19/2422Z TN12/2512Z

Example: see airport list